createdAt,value
2023-01-07T00:01:17.046Z,99571.31
2023-01-07T00:03:44.335Z,99575.81
2023-01-07T00:06:22.821Z,99576.47
2023-01-07T00:08:51.447Z,99586.56
2023-01-07T00:11:20.794Z,99590.00
2023-01-07T00:13:49.757Z,99585.09
2023-01-07T00:16:21.624Z,99584.91
2023-01-07T00:18:50.165Z,99566.03
2023-01-07T00:21:18.746Z,99570.38
2023-01-07T00:23:48.484Z,99567.38
2023-01-07T00:26:20.470Z,99563.25
2023-01-07T00:28:49.826Z,99561.97
2023-01-07T00:31:18.942Z,99565.13
2023-01-07T00:33:55.277Z,99566.84
2023-01-07T00:36:23.793Z,99562.09
2023-01-07T00:38:58.319Z,99552.22
2023-01-07T00:41:25.099Z,99556.59
2023-01-07T00:43:51.725Z,99556.94
2023-01-07T00:46:18.908Z,99548.91
2023-01-07T00:48:45.443Z,99550.47
2023-01-07T00:51:14.113Z,99550.00
2023-01-07T00:53:40.608Z,99541.63
2023-01-07T00:56:07.488Z,99543.69
2023-01-07T00:58:33.919Z,99546.22
2023-01-07T01:01:01.903Z,99551.84
2023-01-07T01:03:30.328Z,99548.81
2023-01-07T01:06:02.649Z,99542.75
2023-01-07T01:08:29.355Z,99541.75
2023-01-07T01:10:56.202Z,99544.44
2023-01-07T01:13:22.700Z,99536.81
2023-01-07T01:15:49.522Z,99539.34
2023-01-07T01:18:16.493Z,99530.22
2023-01-07T01:20:43.212Z,99532.25
2023-01-07T01:23:09.690Z,99532.56
2023-01-07T01:25:36.265Z,99523.09
2023-01-07T01:28:02.699Z,99514.09
2023-01-07T01:30:29.318Z,99518.59
2023-01-07T01:32:55.758Z,99517.66
2023-01-07T01:35:22.290Z,99515.66
2023-01-07T01:37:48.718Z,99512.13
2023-01-07T01:40:15.334Z,99518.69
2023-01-07T01:42:41.854Z,99518.34
2023-01-07T01:45:11.440Z,99514.25
2023-01-07T01:47:49.945Z,99517.63
2023-01-07T01:50:26.345Z,99519.25
2023-01-07T01:52:58.315Z,99506.47
2023-01-07T01:55:29.788Z,99514.75
2023-01-07T01:58:00.899Z,99514.28
2023-01-07T02:00:28.519Z,99513.56
2023-01-07T02:02:57.960Z,99522.44
2023-01-07T02:05:28.494Z,99512.34
2023-01-07T02:07:55.114Z,99520.50
2023-01-07T02:10:23.563Z,99514.78
2023-01-07T02:12:56.269Z,99516.13
2023-01-07T02:15:54.337Z,99514.88
2023-01-07T02:18:39.253Z,99506.38
2023-01-07T02:21:30.198Z,99494.84
2023-01-07T02:24:26.481Z,99498.50
2023-01-07T02:27:05.099Z,99501.53
2023-01-07T02:29:59.419Z,99499.34
2023-01-07T02:32:47.485Z,99498.13
2023-01-07T02:35:48.482Z,99497.59
2023-01-07T02:38:45.918Z,99482.47
2023-01-07T02:41:31.337Z,99487.28
2023-01-07T02:44:11.966Z,99485.97
2023-01-07T02:46:57.370Z,99484.75
2023-01-07T02:49:23.787Z,99484.00
2023-01-07T02:51:51.767Z,99484.66
2023-01-07T02:54:27.071Z,99484.78
2023-01-07T02:57:02.569Z,99492.56
2023-01-07T02:59:48.402Z,99479.78
2023-01-07T03:02:50.921Z,99474.31
2023-01-07T03:05:32.360Z,99461.06
2023-01-07T03:08:11.589Z,99455.00
2023-01-07T03:10:41.278Z,99468.97
2023-01-07T03:13:32.819Z,99464.22
2023-01-07T03:16:15.775Z,99457.53
2023-01-07T03:18:49.404Z,99461.78
2023-01-07T03:21:18.875Z,99459.50
2023-01-07T03:23:51.229Z,99459.75
2023-01-07T03:26:22.859Z,99460.47
2023-01-07T03:28:52.006Z,99455.25
2023-01-07T03:31:20.156Z,99459.75
2023-01-07T03:34:09.676Z,99452.44
2023-01-07T03:36:44.747Z,99452.69
2023-01-07T03:39:12.495Z,99454.66
2023-01-07T03:41:58.758Z,99455.94
2023-01-07T03:44:25.377Z,99455.00
2023-01-07T03:46:52.949Z,99448.19
2023-01-07T03:49:19.881Z,99451.28
2023-01-07T03:51:46.612Z,99446.28
2023-01-07T03:54:13.070Z,99442.75
2023-01-07T03:56:39.685Z,99448.72
2023-01-07T03:59:06.112Z,99435.84
2023-01-07T04:01:32.737Z,99446.94
2023-01-07T04:04:01.753Z,99440.88
2023-01-07T04:06:29.549Z,99431.63
2023-01-07T04:08:56.171Z,99435.28
2023-01-07T04:11:22.578Z,99429.94
2023-01-07T04:13:49.076Z,99426.88
2023-01-07T04:16:15.540Z,99419.84
2023-01-07T04:18:41.906Z,99420.09
2023-01-07T04:21:08.470Z,99421.94
2023-01-07T04:23:34.878Z,99412.22
2023-01-07T04:26:01.431Z,99414.63
2023-01-07T04:28:27.828Z,99406.28
2023-01-07T04:30:54.609Z,99408.81
2023-01-07T04:33:21.067Z,99396.81
2023-01-07T04:35:47.803Z,99401.53
2023-01-07T04:38:14.195Z,99397.16
2023-01-07T04:40:42.832Z,99391.00
2023-01-07T04:43:10.225Z,99393.03
2023-01-07T04:45:36.681Z,99385.00
2023-01-07T04:48:03.400Z,99392.28
2023-01-07T04:50:29.885Z,99396.75
2023-01-07T04:52:56.386Z,99390.09
2023-01-07T04:55:23.014Z,99383.34
2023-01-07T04:57:49.868Z,99381.84
2023-01-07T05:00:16.661Z,99384.53
2023-01-07T05:02:43.205Z,99378.81
2023-01-07T05:05:10.201Z,99382.66
2023-01-07T05:07:36.716Z,99373.63
2023-01-07T05:10:04.251Z,99369.75
2023-01-07T05:12:35.137Z,99372.66
2023-01-07T05:15:02.559Z,99371.66
2023-01-07T05:17:29.261Z,99369.94
2023-01-07T05:19:55.703Z,99359.50
2023-01-07T05:22:22.249Z,99371.66
2023-01-07T05:24:48.672Z,99362.56
2023-01-07T05:27:15.183Z,99361.91
2023-01-07T05:29:41.559Z,99358.41
2023-01-07T05:32:08.186Z,99355.47
2023-01-07T05:34:34.648Z,99358.47
2023-01-07T05:37:01.185Z,99352.53
2023-01-07T05:39:27.734Z,99343.06
2023-01-07T05:41:54.372Z,99342.34
2023-01-07T05:44:20.755Z,99334.66
2023-01-07T05:46:47.329Z,99345.09
2023-01-07T05:49:13.709Z,99342.44
2023-01-07T05:51:40.176Z,99336.25
2023-01-07T05:54:07.278Z,99340.50
2023-01-07T05:56:33.768Z,99336.03
2023-01-07T05:59:00.208Z,99335.91
2023-01-07T06:01:26.992Z,99337.19
2023-01-07T06:03:53.479Z,99328.72
2023-01-07T06:06:20.075Z,99333.72
2023-01-07T06:08:46.425Z,99325.47
2023-01-07T06:11:12.956Z,99325.78
2023-01-07T06:13:39.373Z,99317.44
2023-01-07T06:16:09.010Z,99319.00
2023-01-07T06:18:36.237Z,99311.84
2023-01-07T06:21:02.917Z,99310.97
2023-01-07T06:23:29.667Z,99307.75
2023-01-07T06:25:56.158Z,99297.19
2023-01-07T06:28:22.655Z,99296.63
2023-01-07T06:30:49.426Z,99306.75
2023-01-07T06:33:16.445Z,99306.84
2023-01-07T06:35:44.948Z,99306.75
2023-01-07T06:38:11.891Z,99299.28
2023-01-07T06:40:38.326Z,99292.53
2023-01-07T06:43:04.797Z,99289.06
2023-01-07T06:45:31.294Z,99286.28
2023-01-07T06:47:58.411Z,99273.50
2023-01-07T06:50:25.377Z,99276.31
2023-01-07T06:52:51.998Z,99273.63
2023-01-07T06:55:18.554Z,99268.53
2023-01-07T06:57:45.083Z,99263.69
2023-01-07T07:00:11.970Z,99268.44
2023-01-07T07:02:39.957Z,99272.91
2023-01-07T07:05:06.611Z,99270.69
2023-01-07T07:07:33.119Z,99270.22
2023-01-07T07:09:59.726Z,99268.28
2023-01-07T07:12:26.185Z,99266.13
2023-01-07T07:14:52.763Z,99266.38
2023-01-07T07:17:19.144Z,99269.47
2023-01-07T07:19:45.627Z,99258.19
2023-01-07T07:22:12.815Z,99261.97
2023-01-07T07:24:39.361Z,99258.81
2023-01-07T07:27:05.743Z,99254.91
2023-01-07T07:29:32.335Z,99251.75
2023-01-07T07:31:58.812Z,99245.81
2023-01-07T07:34:25.405Z,99249.63
2023-01-07T07:36:51.912Z,99238.09
2023-01-07T07:39:18.438Z,99239.06
2023-01-07T07:41:44.929Z,99238.94
2023-01-07T07:44:11.635Z,99234.28
2023-01-07T07:46:39.557Z,99226.53
2023-01-07T07:49:06.475Z,99230.34
2023-01-07T07:51:33.334Z,99233.00
2023-01-07T07:53:59.732Z,99228.22
2023-01-07T07:56:26.259Z,99223.34
2023-01-07T07:58:52.746Z,99226.25
2023-01-07T08:01:19.407Z,99220.66
2023-01-07T08:03:45.833Z,99225.31
2023-01-07T08:06:13.365Z,99220.41
2023-01-07T08:08:40.048Z,99218.56
2023-01-07T08:11:06.799Z,99211.59
2023-01-07T08:13:34.720Z,99211.00
2023-01-07T08:16:01.150Z,99202.59
2023-01-07T08:18:29.011Z,99198.22
2023-01-07T08:20:55.729Z,99195.78
2023-01-07T08:23:22.503Z,99190.75
2023-01-07T08:25:48.950Z,99189.09
2023-01-07T08:28:15.538Z,99176.53
2023-01-07T08:30:43.037Z,99180.22
2023-01-07T08:33:09.672Z,99167.13
2023-01-07T08:35:36.379Z,99158.94
2023-01-07T08:38:08.704Z,99158.81
2023-01-07T08:40:36.547Z,99164.59
2023-01-07T08:43:05.863Z,99153.06
2023-01-07T08:45:33.094Z,99151.78
2023-01-07T08:47:59.810Z,99150.28
2023-01-07T08:50:29.257Z,99137.88
2023-01-07T08:52:56.035Z,99149.41
2023-01-07T08:55:23.277Z,99151.69
2023-01-07T08:57:50.178Z,99154.19
2023-01-07T09:00:18.414Z,99149.44
2023-01-07T09:02:45.252Z,99135.06
2023-01-07T09:05:12.047Z,99136.75
2023-01-07T09:07:38.533Z,99139.88
2023-01-07T09:10:05.936Z,99139.00
2023-01-07T09:12:32.428Z,99140.72
2023-01-07T09:14:58.837Z,99136.34
2023-01-07T09:17:25.299Z,99142.56
2023-01-07T09:19:51.908Z,99133.25
2023-01-07T09:22:18.443Z,99133.09
2023-01-07T09:24:47.134Z,99129.56
2023-01-07T09:27:16.755Z,99134.81
2023-01-07T09:29:43.541Z,99133.66
2023-01-07T09:32:10.596Z,99125.06
2023-01-07T09:34:38.211Z,99118.13
2023-01-07T09:37:04.947Z,99124.19
2023-01-07T09:39:31.768Z,99117.03
2023-01-07T09:42:33.701Z,99110.25
2023-01-07T09:45:20.030Z,99116.59
2023-01-07T09:47:50.964Z,99105.31
2023-01-07T09:51:12.655Z,99093.00
2023-01-07T09:53:44.099Z,99091.63
2023-01-07T09:56:30.298Z,99086.53
2023-01-07T09:58:59.184Z,99080.06
2023-01-07T10:01:31.630Z,99071.63
2023-01-07T10:04:04.309Z,99074.31
2023-01-07T10:06:51.241Z,99070.47
2023-01-07T10:09:38.160Z,99068.47
2023-01-07T10:12:34.002Z,99059.19
2023-01-07T10:15:24.745Z,99058.72
2023-01-07T10:18:15.604Z,99057.72
2023-01-07T10:20:54.542Z,99058.56
2023-01-07T10:23:26.265Z,99051.19
2023-01-07T10:25:57.137Z,99040.50
2023-01-07T10:28:42.060Z,99042.44
2023-01-07T10:31:21.504Z,99036.47
2023-01-07T10:33:49.975Z,99029.44
2023-01-07T10:36:31.462Z,99021.22
2023-01-07T10:39:26.014Z,99032.28
2023-01-07T10:42:23.471Z,99030.31
2023-01-07T10:45:01.973Z,99034.63
2023-01-07T10:48:11.802Z,99022.03
2023-01-07T10:50:58.607Z,99007.28
2023-01-07T10:53:34.129Z,99003.25
2023-01-07T10:56:21.158Z,98995.47
2023-01-07T10:58:49.332Z,98994.03
2023-01-07T11:01:21.849Z,98989.81
2023-01-07T11:03:53.508Z,98985.44
2023-01-07T11:06:38.734Z,98998.88
2023-01-07T11:09:12.271Z,98986.03
2023-01-07T11:11:39.863Z,98982.59
2023-01-07T11:14:13.224Z,98972.59
2023-01-07T11:16:50.023Z,98964.34
2023-01-07T11:19:16.734Z,98957.63
2023-01-07T11:21:46.315Z,98948.34
2023-01-07T11:24:18.984Z,98957.09
2023-01-07T11:26:46.379Z,98954.78
2023-01-07T11:29:26.201Z,98951.72
2023-01-07T11:32:02.573Z,98946.91
2023-01-07T11:34:50.796Z,98942.91
2023-01-07T11:37:40.774Z,98926.81
2023-01-07T11:40:13.295Z,98923.78
2023-01-07T11:42:52.929Z,98918.06
2023-01-07T11:45:24.199Z,98911.59
2023-01-07T11:47:53.593Z,98906.22
2023-01-07T11:50:37.982Z,98891.03
2023-01-07T11:53:13.405Z,98899.25
2023-01-07T11:55:41.169Z,98885.66
2023-01-07T11:58:28.986Z,98889.66
2023-01-07T12:01:07.594Z,98869.81
2023-01-07T12:03:40.727Z,98861.75
2023-01-07T12:06:18.146Z,98863.47
2023-01-07T12:08:53.060Z,98846.69
2023-01-07T12:11:20.831Z,98842.16
2023-01-07T12:13:52.918Z,98832.09
2023-01-07T12:16:27.037Z,98818.41
2023-01-07T12:19:19.028Z,98816.69
2023-01-07T12:21:52.621Z,98824.22
2023-01-07T12:24:51.324Z,98816.31
2023-01-07T12:27:35.233Z,98806.19
2023-01-07T12:30:23.632Z,98801.13
2023-01-07T12:33:05.027Z,98803.63
2023-01-07T12:35:37.105Z,98794.94
2023-01-07T12:38:26.193Z,98790.22
2023-01-07T12:41:01.241Z,98784.13
2023-01-07T12:43:57.863Z,98789.03
2023-01-07T12:46:26.836Z,98782.31
2023-01-07T12:49:28.580Z,98774.66
2023-01-07T12:52:17.673Z,98775.25
2023-01-07T12:55:00.807Z,98776.44
2023-01-07T12:57:36.899Z,98769.91
2023-01-07T13:00:12.580Z,98772.50
2023-01-07T13:03:02.153Z,98773.78
2023-01-07T13:05:54.646Z,98766.00
2023-01-07T13:08:43.307Z,98771.00
2023-01-07T13:11:41.138Z,98756.75
2023-01-07T13:14:22.434Z,98759.81
2023-01-07T13:16:49.306Z,98754.44
2023-01-07T13:19:15.919Z,98753.34
2023-01-07T13:21:47.103Z,98752.97
2023-01-07T13:24:56.302Z,98744.56
2023-01-07T13:28:02.121Z,98741.88
2023-01-07T13:31:10.475Z,98738.72
2023-01-07T13:33:45.058Z,98738.16
2023-01-07T13:36:28.371Z,98734.13
2023-01-07T13:39:03.967Z,98720.25
2023-01-07T13:42:08.107Z,98724.25
2023-01-07T13:44:58.980Z,98731.00
2023-01-07T13:47:54.667Z,98725.78
2023-01-07T13:50:25.545Z,98722.56
2023-01-07T13:52:57.907Z,98707.78
2023-01-07T13:55:34.417Z,98701.50
2023-01-07T13:58:02.769Z,98699.72
2023-01-07T14:00:39.945Z,98697.38
2023-01-07T14:03:28.208Z,98702.91
2023-01-07T14:06:19.664Z,98694.72
2023-01-07T14:08:50.848Z,98702.69
2023-01-07T14:11:41.873Z,98706.88
2023-01-07T14:14:50.588Z,98711.03
2023-01-07T14:17:32.822Z,98705.06
2023-01-07T14:20:30.634Z,98708.78
2023-01-07T14:22:59.788Z,98689.75
2023-01-07T14:25:36.275Z,98688.69
2023-01-07T14:28:33.309Z,98685.88
2023-01-07T14:30:59.778Z,98679.31
2023-01-07T14:33:26.249Z,98679.53
2023-01-07T14:35:59.554Z,98678.50
2023-01-07T14:38:29.097Z,98675.75
2023-01-07T14:41:13.245Z,98684.56
2023-01-07T14:43:42.413Z,98680.97
2023-01-07T14:46:45.328Z,98667.75
2023-01-07T14:49:22.915Z,98680.38
2023-01-07T14:51:58.426Z,98680.97
2023-01-07T14:55:11.610Z,98683.72
2023-01-07T14:58:29.438Z,98676.47
2023-01-07T15:01:01.818Z,98678.75
2023-01-07T15:03:34.284Z,98674.63
2023-01-07T15:06:11.699Z,98675.69
2023-01-07T15:09:27.395Z,98673.59
2023-01-07T15:12:16.747Z,98677.38
2023-01-07T15:15:07.036Z,98674.34
2023-01-07T15:17:33.738Z,98662.09
2023-01-07T15:20:05.636Z,98673.56
2023-01-07T15:22:57.747Z,98666.94
2023-01-07T15:25:48.494Z,98673.31
2023-01-07T15:28:23.632Z,98685.44
2023-01-07T15:30:49.881Z,98685.16
2023-01-07T15:33:29.332Z,98677.88
2023-01-07T15:35:57.584Z,98678.94
2023-01-07T15:38:31.476Z,98671.50
2023-01-07T15:40:59.452Z,98678.00
2023-01-07T15:43:29.084Z,98675.88
2023-01-07T15:46:06.862Z,98670.97
2023-01-07T15:48:33.467Z,98669.97
2023-01-07T15:51:00.576Z,98676.63
2023-01-07T15:53:29.687Z,98664.22
2023-01-07T15:56:03.931Z,98659.03
2023-01-07T15:58:36.732Z,98657.22
2023-01-07T16:01:04.892Z,98645.50
2023-01-07T16:03:32.846Z,98644.56
2023-01-07T16:06:01.535Z,98639.25
2023-01-07T16:08:33.344Z,98626.34
2023-01-07T16:11:11.343Z,98627.75
2023-01-07T16:13:37.804Z,98634.78
2023-01-07T16:16:06.565Z,98634.81
2023-01-07T16:18:33.563Z,98633.41
2023-01-07T16:21:12.685Z,98628.06
2023-01-07T16:23:40.482Z,98637.06
2023-01-07T16:26:16.731Z,98640.00
2023-01-07T16:28:49.957Z,98634.38
2023-01-07T16:31:20.592Z,98637.47
2023-01-07T16:33:49.547Z,98629.72
2023-01-07T16:36:23.567Z,98621.03
2023-01-07T16:38:53.956Z,98610.56
2023-01-07T16:41:24.141Z,98608.88
2023-01-07T16:43:54.112Z,98608.19
2023-01-07T16:46:33.093Z,98616.66
2023-01-07T16:49:11.763Z,98606.44
2023-01-07T16:51:45.226Z,98605.75
2023-01-07T16:54:19.533Z,98615.63
2023-01-07T16:56:58.112Z,98614.94
2023-01-07T16:59:28.374Z,98598.50
2023-01-07T17:01:58.023Z,98602.84
2023-01-07T17:04:30.399Z,98604.81
2023-01-07T17:07:00.180Z,98588.78
2023-01-07T17:09:38.551Z,98594.13
2023-01-07T17:12:05.563Z,98589.88
2023-01-07T17:14:36.485Z,98579.19
2023-01-07T17:17:07.724Z,98594.13
2023-01-07T17:19:49.223Z,98586.25
2023-01-07T17:22:35.844Z,98580.34
2023-01-07T17:25:12.347Z,98584.28
2023-01-07T17:27:46.646Z,98592.34
2023-01-07T17:30:20.466Z,98584.06
2023-01-07T17:32:50.595Z,98584.47
2023-01-07T17:35:22.559Z,98586.31
2023-01-07T17:37:49.807Z,98586.59
2023-01-07T17:40:17.241Z,98594.19
2023-01-07T17:43:04.283Z,98589.25
2023-01-07T17:45:30.711Z,98577.28
2023-01-07T17:47:58.697Z,98572.63
2023-01-07T17:50:30.613Z,98577.13
2023-01-07T17:52:57.076Z,98569.81
2023-01-07T17:55:29.455Z,98567.81
2023-01-07T17:57:56.216Z,98564.59
2023-01-07T18:00:25.826Z,98565.56
2023-01-07T18:02:53.436Z,98570.47
2023-01-07T18:05:24.751Z,98562.00
2023-01-07T18:07:52.692Z,98555.28
2023-01-07T18:10:26.358Z,98561.94
2023-01-07T18:12:52.884Z,98561.19
2023-01-07T18:15:26.072Z,98559.53
2023-01-07T18:17:52.864Z,98569.75
2023-01-07T18:20:21.394Z,98554.88
2023-01-07T18:22:48.255Z,98551.13
2023-01-07T18:25:18.047Z,98555.38
2023-01-07T18:27:44.992Z,98541.91
2023-01-07T18:30:18.613Z,98537.88
2023-01-07T18:32:46.084Z,98531.06
2023-01-07T18:35:12.890Z,98546.81
2023-01-07T18:37:39.930Z,98533.59
2023-01-07T18:40:09.140Z,98528.22
2023-01-07T18:42:36.287Z,98530.63
2023-01-07T18:45:06.896Z,98526.25
2023-01-07T18:47:33.599Z,98536.41
2023-01-07T18:50:00.420Z,98529.06
2023-01-07T18:52:27.895Z,98527.13
2023-01-07T18:54:54.614Z,98512.41
2023-01-07T18:57:20.998Z,98503.38
2023-01-07T18:59:47.838Z,98499.72
2023-01-07T19:02:16.723Z,98506.22
2023-01-07T19:04:43.452Z,98516.47
2023-01-07T19:07:10.485Z,98499.19
2023-01-07T19:09:37.150Z,98504.69
2023-01-07T19:12:05.123Z,98493.94
2023-01-07T19:14:32.363Z,98497.72
2023-01-07T19:16:59.316Z,98491.06
2023-01-07T19:19:30.124Z,98492.00
2023-01-07T19:21:58.783Z,98477.94
2023-01-07T19:24:25.559Z,98478.50
2023-01-07T19:26:52.116Z,98485.44
2023-01-07T19:29:19.539Z,98490.53
2023-01-07T19:31:46.861Z,98503.88
2023-01-07T19:34:14.096Z,98506.84
2023-01-07T19:36:44.840Z,98501.81
2023-01-07T19:39:20.434Z,98499.81
2023-01-07T19:41:48.327Z,98501.06
2023-01-07T19:44:15.579Z,98503.00
2023-01-07T19:46:44.133Z,98513.53
2023-01-07T19:49:11.949Z,98514.47
2023-01-07T19:51:40.365Z,98494.53
2023-01-07T19:54:08.444Z,98484.28
2023-01-07T19:56:36.347Z,98485.03
2023-01-07T19:59:03.462Z,98497.66
2023-01-07T20:01:29.993Z,98489.03
2023-01-07T20:03:58.717Z,98490.53
2023-01-07T20:06:28.552Z,98489.13
2023-01-07T20:08:57.221Z,98480.75
2023-01-07T20:11:24.842Z,98474.28
2023-01-07T20:13:51.727Z,98475.78
2023-01-07T20:16:21.899Z,98481.31
2023-01-07T20:18:55.393Z,98482.44
2023-01-07T20:21:25.399Z,98486.44
2023-01-07T20:23:52.627Z,98486.72
2023-01-07T20:26:22.155Z,98489.03
2023-01-07T20:28:49.244Z,98489.84
2023-01-07T20:31:17.171Z,98481.31
2023-01-07T20:33:44.724Z,98476.25
2023-01-07T20:36:16.635Z,98474.59
2023-01-07T20:38:45.026Z,98473.28
2023-01-07T20:41:21.447Z,98473.56
2023-01-07T20:43:56.145Z,98474.03
2023-01-07T20:46:24.282Z,98471.38
2023-01-07T20:48:51.417Z,98469.84
2023-01-07T20:51:18.687Z,98467.84
2023-01-07T20:53:46.793Z,98471.75
2023-01-07T20:56:16.716Z,98468.31
2023-01-07T20:58:44.003Z,98472.03
2023-01-07T21:01:17.037Z,98468.16
2023-01-07T21:03:44.196Z,98464.03
2023-01-07T21:06:12.579Z,98458.66
2023-01-07T21:08:39.568Z,98451.31
2023-01-07T21:11:17.641Z,98448.66
2023-01-07T21:13:44.555Z,98451.66
2023-01-07T21:16:11.392Z,98438.13
2023-01-07T21:18:38.226Z,98439.34
2023-01-07T21:21:13.258Z,98428.94
2023-01-07T21:23:39.960Z,98436.34
2023-01-07T21:26:07.843Z,98437.72
2023-01-07T21:28:35.240Z,98436.56
2023-01-07T21:31:08.859Z,98452.16
2023-01-07T21:33:36.431Z,98443.44
2023-01-07T21:36:10.796Z,98440.63
2023-01-07T21:38:37.853Z,98427.44
2023-01-07T21:41:24.263Z,98413.69
2023-01-07T21:43:50.978Z,98408.56
2023-01-07T21:46:17.937Z,98406.03
2023-01-07T21:48:46.841Z,98410.91
2023-01-07T21:51:25.580Z,98399.72
2023-01-07T21:53:55.734Z,98395.69
2023-01-07T21:56:24.252Z,98394.06
2023-01-07T21:58:50.714Z,98402.72
2023-01-07T22:01:18.406Z,98404.41
2023-01-07T22:03:47.789Z,98419.00
2023-01-07T22:06:20.380Z,98411.09
2023-01-07T22:08:48.281Z,98405.13
2023-01-07T22:11:16.379Z,98396.94
2023-01-07T22:13:43.555Z,98392.75
2023-01-07T22:16:10.134Z,98393.09
2023-01-07T22:18:36.739Z,98403.44
2023-01-07T22:21:03.336Z,98391.06
2023-01-07T22:23:29.698Z,98397.47
2023-01-07T22:26:03.795Z,98393.75
2023-01-07T22:28:32.393Z,98399.09
2023-01-07T22:31:02.054Z,98410.28
2023-01-07T22:33:28.419Z,98403.13
2023-01-07T22:35:56.299Z,98409.31
2023-01-07T22:38:24.759Z,98400.94
2023-01-07T22:40:51.351Z,98411.47
2023-01-07T22:43:20.274Z,98418.53
2023-01-07T22:45:58.520Z,98425.72
2023-01-07T22:48:27.630Z,98416.31
2023-01-07T22:51:06.248Z,98414.88
2023-01-07T22:53:32.949Z,98411.63
2023-01-07T22:56:00.252Z,98410.97
2023-01-07T22:58:26.664Z,98397.25
2023-01-07T23:00:53.216Z,98411.00
2023-01-07T23:03:21.042Z,98416.88
2023-01-07T23:05:47.868Z,98410.03
2023-01-07T23:08:14.646Z,98417.72
2023-01-07T23:10:42.587Z,98407.13
2023-01-07T23:13:09.614Z,98399.78
2023-01-07T23:15:37.523Z,98397.63
2023-01-07T23:18:05.818Z,98391.81
2023-01-07T23:20:33.667Z,98396.28
2023-01-07T23:23:00.680Z,98383.63
2023-01-07T23:25:27.448Z,98375.75
2023-01-07T23:27:53.996Z,98382.72
2023-01-07T23:30:20.587Z,98387.06
2023-01-07T23:32:47.010Z,98397.09
2023-01-07T23:35:13.885Z,98386.75
2023-01-07T23:37:40.530Z,98383.78
2023-01-07T23:40:08.895Z,98368.69
2023-01-07T23:42:35.765Z,98376.94
2023-01-07T23:45:02.314Z,98373.38
2023-01-07T23:47:28.759Z,98369.22
2023-01-07T23:49:55.316Z,98357.66
2023-01-07T23:52:21.679Z,98361.19
2023-01-07T23:54:48.203Z,98363.84
2023-01-07T23:57:14.812Z,98347.78
2023-01-07T23:59:43.663Z,98352.84
